sensor_id;sensor_type;location;lat;lon;timestamp;P1;durP1;ratioP1;P2;durP2;ratioP2
5608;SDS011;2826;51.354;9.588;2022-12-17T00:02:01;38.28;;;11.35;;
5608;SDS011;2826;51.354;9.588;2022-12-17T00:04:51;29.50;;;12.53;;
5608;SDS011;2826;51.354;9.588;2022-12-17T00:07:37;37.83;;;12.13;;
5608;SDS011;2826;51.354;9.588;2022-12-17T00:10:22;36.58;;;12.10;;
5608;SDS011;2826;51.354;9.588;2022-12-17T00:13:14;39.65;;;14.20;;
5608;SDS011;2826;51.354;9.588;2022-12-17T00:16:01;32.97;;;13.23;;
5608;SDS011;2826;51.354;9.588;2022-12-17T00:18:45;32.07;;;12.10;;
5608;SDS011;2826;51.354;9.588;2022-12-17T00:21:30;61.83;;;14.57;;
5608;SDS011;2826;51.354;9.588;2022-12-17T00:24:16;73.53;;;16.55;;
5608;SDS011;2826;51.354;9.588;2022-12-17T00:27:01;55.90;;;13.87;;
5608;SDS011;2826;51.354;9.588;2022-12-17T00:29:45;38.58;;;12.27;;
5608;SDS011;2826;51.354;9.588;2022-12-17T00:32:30;39.33;;;14.43;;
5608;SDS011;2826;51.354;9.588;2022-12-17T00:35:14;41.40;;;13.53;;
5608;SDS011;2826;51.354;9.588;2022-12-17T00:38:13;42.40;;;14.40;;
5608;SDS011;2826;51.354;9.588;2022-12-17T00:41:00;47.17;;;12.20;;
5608;SDS011;2826;51.354;9.588;2022-12-17T00:43:45;46.33;;;14.43;;
5608;SDS011;2826;51.354;9.588;2022-12-17T00:46:30;43.87;;;13.10;;
5608;SDS011;2826;51.354;9.588;2022-12-17T00:49:15;33.13;;;12.33;;
5608;SDS011;2826;51.354;9.588;2022-12-17T00:51:59;42.50;;;15.40;;
5608;SDS011;2826;51.354;9.588;2022-12-17T00:54:44;44.73;;;15.43;;
5608;SDS011;2826;51.354;9.588;2022-12-17T00:57:30;56.20;;;13.03;;
5608;SDS011;2826;51.354;9.588;2022-12-17T01:00:14;54.93;;;14.00;;
5608;SDS011;2826;51.354;9.588;2022-12-17T01:03:03;50.17;;;13.15;;
5608;SDS011;2826;51.354;9.588;2022-12-17T01:05:48;35.80;;;11.67;;
5608;SDS011;2826;51.354;9.588;2022-12-17T01:08:33;39.87;;;13.00;;
5608;SDS011;2826;51.354;9.588;2022-12-17T01:11:18;71.72;;;12.75;;
5608;SDS011;2826;51.354;9.588;2022-12-17T01:14:26;74.57;;;12.43;;
5608;SDS011;2826;51.354;9.588;2022-12-17T01:17:11;58.72;;;14.18;;
5608;SDS011;2826;51.354;9.588;2022-12-17T01:19:56;33.67;;;13.30;;
5608;SDS011;2826;51.354;9.588;2022-12-17T01:22:40;55.00;;;14.10;;
5608;SDS011;2826;51.354;9.588;2022-12-17T01:25:25;39.07;;;11.97;;
5608;SDS011;2826;51.354;9.588;2022-12-17T01:28:09;77.53;;;14.07;;
5608;SDS011;2826;51.354;9.588;2022-12-17T01:30:56;55.13;;;12.80;;
5608;SDS011;2826;51.354;9.588;2022-12-17T01:33:40;49.30;;;14.80;;
5608;SDS011;2826;51.354;9.588;2022-12-17T01:36:25;37.47;;;13.03;;
5608;SDS011;2826;51.354;9.588;2022-12-17T01:39:09;54.97;;;15.33;;
5608;SDS011;2826;51.354;9.588;2022-12-17T01:41:54;52.83;;;14.80;;
5608;SDS011;2826;51.354;9.588;2022-12-17T01:44:43;49.00;;;16.23;;
5608;SDS011;2826;51.354;9.588;2022-12-17T01:47:35;60.00;;;14.20;;
5608;SDS011;2826;51.354;9.588;2022-12-17T01:50:23;43.30;;;13.00;;
5608;SDS011;2826;51.354;9.588;2022-12-17T01:53:10;50.80;;;15.20;;
5608;SDS011;2826;51.354;9.588;2022-12-17T01:55:56;39.63;;;14.07;;
5608;SDS011;2826;51.354;9.588;2022-12-17T01:58:42;43.83;;;14.50;;
5608;SDS011;2826;51.354;9.588;2022-12-17T02:01:27;45.50;;;14.90;;
5608;SDS011;2826;51.354;9.588;2022-12-17T02:04:12;48.70;;;13.80;;
5608;SDS011;2826;51.354;9.588;2022-12-17T02:07:01;42.87;;;13.60;;
5608;SDS011;2826;51.354;9.588;2022-12-17T02:10:06;40.67;;;15.50;;
5608;SDS011;2826;51.354;9.588;2022-12-17T02:13:01;48.67;;;14.40;;
5608;SDS011;2826;51.354;9.588;2022-12-17T02:15:52;61.50;;;15.53;;
5608;SDS011;2826;51.354;9.588;2022-12-17T02:18:42;56.73;;;16.77;;
5608;SDS011;2826;51.354;9.588;2022-12-17T02:21:32;115.10;;;15.60;;
5608;SDS011;2826;51.354;9.588;2022-12-17T02:24:19;56.83;;;17.33;;
5608;SDS011;2826;51.354;9.588;2022-12-17T02:27:13;55.77;;;13.17;;
5608;SDS011;2826;51.354;9.588;2022-12-17T02:29:59;78.70;;;16.77;;
5608;SDS011;2826;51.354;9.588;2022-12-17T02:32:47;47.67;;;15.87;;
5608;SDS011;2826;51.354;9.588;2022-12-17T02:35:34;59.93;;;16.30;;
5608;SDS011;2826;51.354;9.588;2022-12-17T02:38:22;57.57;;;16.70;;
5608;SDS011;2826;51.354;9.588;2022-12-17T02:41:11;104.20;;;17.67;;
5608;SDS011;2826;51.354;9.588;2022-12-17T02:44:01;70.53;;;17.37;;
5608;SDS011;2826;51.354;9.588;2022-12-17T02:46:47;90.90;;;16.60;;
5608;SDS011;2826;51.354;9.588;2022-12-17T02:49:34;60.07;;;16.27;;
5608;SDS011;2826;51.354;9.588;2022-12-17T02:52:18;58.97;;;15.33;;
5608;SDS011;2826;51.354;9.588;2022-12-17T02:55:05;81.47;;;14.17;;
5608;SDS011;2826;51.354;9.588;2022-12-17T02:57:51;55.27;;;14.13;;
5608;SDS011;2826;51.354;9.588;2022-12-17T03:00:37;50.27;;;13.70;;
5608;SDS011;2826;51.354;9.588;2022-12-17T03:03:23;57.00;;;14.97;;
5608;SDS011;2826;51.354;9.588;2022-12-17T03:06:07;56.93;;;15.37;;
5608;SDS011;2826;51.354;9.588;2022-12-17T03:08:52;50.43;;;15.80;;
5608;SDS011;2826;51.354;9.588;2022-12-17T03:11:36;69.70;;;15.87;;
5608;SDS011;2826;51.354;9.588;2022-12-17T03:14:21;58.40;;;14.97;;
5608;SDS011;2826;51.354;9.588;2022-12-17T03:17:07;94.33;;;15.30;;
5608;SDS011;2826;51.354;9.588;2022-12-17T03:19:51;80.40;;;15.20;;
5608;SDS011;2826;51.354;9.588;2022-12-17T03:22:36;60.70;;;14.30;;
5608;SDS011;2826;51.354;9.588;2022-12-17T03:25:20;88.17;;;13.93;;
5608;SDS011;2826;51.354;9.588;2022-12-17T03:28:06;134.33;;;16.13;;
5608;SDS011;2826;51.354;9.588;2022-12-17T03:30:52;71.37;;;15.97;;
5608;SDS011;2826;51.354;9.588;2022-12-17T03:33:38;87.97;;;16.53;;
5608;SDS011;2826;51.354;9.588;2022-12-17T03:36:22;45.27;;;15.30;;
5608;SDS011;2826;51.354;9.588;2022-12-17T03:39:15;71.33;;;13.67;;
5608;SDS011;2826;51.354;9.588;2022-12-17T03:42:00;64.63;;;16.17;;
5608;SDS011;2826;51.354;9.588;2022-12-17T03:44:44;35.57;;;14.90;;
5608;SDS011;2826;51.354;9.588;2022-12-17T03:47:28;54.47;;;13.90;;
5608;SDS011;2826;51.354;9.588;2022-12-17T03:50:14;51.33;;;14.40;;
5608;SDS011;2826;51.354;9.588;2022-12-17T03:53:00;81.93;;;14.93;;
5608;SDS011;2826;51.354;9.588;2022-12-17T03:55:47;90.63;;;16.20;;
5608;SDS011;2826;51.354;9.588;2022-12-17T03:58:31;133.37;;;16.57;;
5608;SDS011;2826;51.354;9.588;2022-12-17T04:01:16;121.13;;;15.97;;
5608;SDS011;2826;51.354;9.588;2022-12-17T04:04:00;60.58;;;15.52;;
5608;SDS011;2826;51.354;9.588;2022-12-17T04:06:46;61.00;;;13.47;;
5608;SDS011;2826;51.354;9.588;2022-12-17T04:09:31;49.87;;;15.90;;
5608;SDS011;2826;51.354;9.588;2022-12-17T04:12:15;181.40;;;18.37;;
5608;SDS011;2826;51.354;9.588;2022-12-17T04:15:00;59.93;;;16.03;;
5608;SDS011;2826;51.354;9.588;2022-12-17T04:17:45;67.10;;;14.68;;
5608;SDS011;2826;51.354;9.588;2022-12-17T04:20:29;59.03;;;14.37;;
5608;SDS011;2826;51.354;9.588;2022-12-17T04:23:15;244.03;;;18.30;;
5608;SDS011;2826;51.354;9.588;2022-12-17T04:26:00;116.43;;;14.40;;
5608;SDS011;2826;51.354;9.588;2022-12-17T04:28:45;141.13;;;15.93;;
5608;SDS011;2826;51.354;9.588;2022-12-17T04:31:30;163.43;;;16.10;;
5608;SDS011;2826;51.354;9.588;2022-12-17T04:34:14;246.50;;;17.03;;
5608;SDS011;2826;51.354;9.588;2022-12-17T04:36:58;137.38;;;15.38;;
5608;SDS011;2826;51.354;9.588;2022-12-17T04:39:44;63.42;;;15.55;;
5608;SDS011;2826;51.354;9.588;2022-12-17T04:42:29;75.25;;;14.68;;
5608;SDS011;2826;51.354;9.588;2022-12-17T04:45:14;90.57;;;14.07;;
5608;SDS011;2826;51.354;9.588;2022-12-17T04:48:01;84.72;;;17.15;;
5608;SDS011;2826;51.354;9.588;2022-12-17T04:50:47;82.20;;;17.03;;
5608;SDS011;2826;51.354;9.588;2022-12-17T04:53:31;43.90;;;12.77;;
5608;SDS011;2826;51.354;9.588;2022-12-17T04:56:17;53.97;;;16.37;;
5608;SDS011;2826;51.354;9.588;2022-12-17T04:59:02;56.20;;;14.50;;
5608;SDS011;2826;51.354;9.588;2022-12-17T05:01:47;65.10;;;14.40;;
5608;SDS011;2826;51.354;9.588;2022-12-17T05:04:34;44.27;;;13.60;;
5608;SDS011;2826;51.354;9.588;2022-12-17T05:07:18;38.55;;;11.27;;
5608;SDS011;2826;51.354;9.588;2022-12-17T05:10:02;114.07;;;13.70;;
5608;SDS011;2826;51.354;9.588;2022-12-17T05:12:54;57.10;;;14.47;;
5608;SDS011;2826;51.354;9.588;2022-12-17T05:15:39;86.30;;;13.40;;
5608;SDS011;2826;51.354;9.588;2022-12-17T05:18:23;42.60;;;12.97;;
5608;SDS011;2826;51.354;9.588;2022-12-17T05:21:08;46.33;;;12.73;;
5608;SDS011;2826;51.354;9.588;2022-12-17T05:23:52;45.87;;;12.90;;
5608;SDS011;2826;51.354;9.588;2022-12-17T05:26:36;52.22;;;16.23;;
5608;SDS011;2826;51.354;9.588;2022-12-17T05:29:22;82.20;;;15.00;;
5608;SDS011;2826;51.354;9.588;2022-12-17T05:32:07;104.67;;;15.13;;
5608;SDS011;2826;51.354;9.588;2022-12-17T05:35:03;52.85;;;14.82;;
5608;SDS011;2826;51.354;9.588;2022-12-17T05:37:47;159.60;;;16.10;;
5608;SDS011;2826;51.354;9.588;2022-12-17T05:40:32;154.75;;;14.90;;
5608;SDS011;2826;51.354;9.588;2022-12-17T05:43:17;211.13;;;17.90;;
5608;SDS011;2826;51.354;9.588;2022-12-17T05:46:02;153.38;;;15.68;;
5608;SDS011;2826;51.354;9.588;2022-12-17T05:48:48;128.87;;;14.37;;
5608;SDS011;2826;51.354;9.588;2022-12-17T05:51:32;64.90;;;14.15;;
5608;SDS011;2826;51.354;9.588;2022-12-17T05:54:17;222.65;;;15.43;;
5608;SDS011;2826;51.354;9.588;2022-12-17T05:57:01;108.43;;;15.10;;
5608;SDS011;2826;51.354;9.588;2022-12-17T05:59:46;81.43;;;15.65;;
5608;SDS011;2826;51.354;9.588;2022-12-17T06:02:39;58.37;;;14.23;;
5608;SDS011;2826;51.354;9.588;2022-12-17T06:05:23;75.83;;;15.27;;
5608;SDS011;2826;51.354;9.588;2022-12-17T06:08:08;77.00;;;14.70;;
5608;SDS011;2826;51.354;9.588;2022-12-17T06:10:57;53.47;;;12.97;;
5608;SDS011;2826;51.354;9.588;2022-12-17T06:13:43;37.13;;;12.27;;
5608;SDS011;2826;51.354;9.588;2022-12-17T06:16:27;38.65;;;11.10;;
5608;SDS011;2826;51.354;9.588;2022-12-17T06:19:13;56.43;;;14.10;;
5608;SDS011;2826;51.354;9.588;2022-12-17T06:21:58;39.13;;;13.98;;
5608;SDS011;2826;51.354;9.588;2022-12-17T06:24:42;42.33;;;13.23;;
5608;SDS011;2826;51.354;9.588;2022-12-17T06:27:27;57.60;;;13.82;;
5608;SDS011;2826;51.354;9.588;2022-12-17T06:30:11;46.30;;;13.90;;
5608;SDS011;2826;51.354;9.588;2022-12-17T06:33:02;48.95;;;13.70;;
5608;SDS011;2826;51.354;9.588;2022-12-17T06:35:50;72.57;;;13.35;;
5608;SDS011;2826;51.354;9.588;2022-12-17T06:38:36;52.13;;;13.23;;
5608;SDS011;2826;51.354;9.588;2022-12-17T06:41:20;50.72;;;15.23;;
5608;SDS011;2826;51.354;9.588;2022-12-17T06:44:05;52.40;;;12.60;;
5608;SDS011;2826;51.354;9.588;2022-12-17T06:47:04;39.78;;;12.27;;
5608;SDS011;2826;51.354;9.588;2022-12-17T06:49:48;48.45;;;12.20;;
5608;SDS011;2826;51.354;9.588;2022-12-17T06:52:34;54.22;;;13.90;;
5608;SDS011;2826;51.354;9.588;2022-12-17T06:55:19;40.53;;;13.02;;
5608;SDS011;2826;51.354;9.588;2022-12-17T06:58:04;57.60;;;14.50;;
5608;SDS011;2826;51.354;9.588;2022-12-17T07:00:49;48.15;;;13.40;;
5608;SDS011;2826;51.354;9.588;2022-12-17T07:03:34;44.40;;;12.95;;
5608;SDS011;2826;51.354;9.588;2022-12-17T07:06:19;38.70;;;11.57;;
5608;SDS011;2826;51.354;9.588;2022-12-17T07:09:05;45.15;;;12.50;;
5608;SDS011;2826;51.354;9.588;2022-12-17T07:11:49;51.13;;;12.93;;
5608;SDS011;2826;51.354;9.588;2022-12-17T07:14:34;61.45;;;13.80;;
5608;SDS011;2826;51.354;9.588;2022-12-17T07:17:18;35.77;;;13.17;;
5608;SDS011;2826;51.354;9.588;2022-12-17T07:20:03;95.05;;;12.50;;
5608;SDS011;2826;51.354;9.588;2022-12-17T07:22:52;36.17;;;12.90;;
5608;SDS011;2826;51.354;9.588;2022-12-17T07:25:39;48.67;;;13.90;;
5608;SDS011;2826;51.354;9.588;2022-12-17T07:28:20;41.55;;;14.20;;
5608;SDS011;2826;51.354;9.588;2022-12-17T07:31:04;53.00;;;13.27;;
5608;SDS011;2826;51.354;9.588;2022-12-17T07:33:49;47.13;;;17.38;;
5608;SDS011;2826;51.354;9.588;2022-12-17T07:36:33;50.80;;;16.50;;
5608;SDS011;2826;51.354;9.588;2022-12-17T07:39:17;37.97;;;15.60;;
5608;SDS011;2826;51.354;9.588;2022-12-17T07:42:04;47.05;;;14.82;;
5608;SDS011;2826;51.354;9.588;2022-12-17T07:44:48;57.13;;;14.52;;
5608;SDS011;2826;51.354;9.588;2022-12-17T07:47:33;83.38;;;16.10;;
5608;SDS011;2826;51.354;9.588;2022-12-17T07:50:20;72.38;;;16.00;;
5608;SDS011;2826;51.354;9.588;2022-12-17T07:53:05;78.20;;;15.43;;
5608;SDS011;2826;51.354;9.588;2022-12-17T07:55:50;82.40;;;18.50;;
5608;SDS011;2826;51.354;9.588;2022-12-17T07:58:36;54.07;;;15.90;;
5608;SDS011;2826;51.354;9.588;2022-12-17T08:01:20;98.60;;;16.20;;
5608;SDS011;2826;51.354;9.588;2022-12-17T08:04:05;101.83;;;15.30;;
5608;SDS011;2826;51.354;9.588;2022-12-17T08:06:49;53.00;;;13.10;;
5608;SDS011;2826;51.354;9.588;2022-12-17T08:09:34;66.65;;;16.98;;
5608;SDS011;2826;51.354;9.588;2022-12-17T08:12:18;66.37;;;17.70;;
5608;SDS011;2826;51.354;9.588;2022-12-17T08:15:04;48.00;;;14.83;;
5608;SDS011;2826;51.354;9.588;2022-12-17T08:17:50;50.60;;;13.77;;
5608;SDS011;2826;51.354;9.588;2022-12-17T08:20:34;56.60;;;13.30;;
5608;SDS011;2826;51.354;9.588;2022-12-17T08:23:18;38.13;;;13.93;;
5608;SDS011;2826;51.354;9.588;2022-12-17T08:26:04;36.13;;;10.63;;
5608;SDS011;2826;51.354;9.588;2022-12-17T08:28:49;85.77;;;14.53;;
5608;SDS011;2826;51.354;9.588;2022-12-17T08:31:35;47.63;;;11.90;;
5608;SDS011;2826;51.354;9.588;2022-12-17T08:34:20;53.25;;;13.20;;
5608;SDS011;2826;51.354;9.588;2022-12-17T08:37:04;46.03;;;13.40;;
5608;SDS011;2826;51.354;9.588;2022-12-17T08:39:48;46.00;;;10.45;;
5608;SDS011;2826;51.354;9.588;2022-12-17T08:42:33;61.30;;;11.88;;
5608;SDS011;2826;51.354;9.588;2022-12-17T08:45:18;40.35;;;11.32;;
5608;SDS011;2826;51.354;9.588;2022-12-17T08:48:04;55.92;;;11.90;;
5608;SDS011;2826;51.354;9.588;2022-12-17T08:50:50;46.57;;;13.97;;
5608;SDS011;2826;51.354;9.588;2022-12-17T08:53:35;30.77;;;11.83;;
5608;SDS011;2826;51.354;9.588;2022-12-17T08:56:19;61.70;;;12.47;;
5608;SDS011;2826;51.354;9.588;2022-12-17T08:59:00;44.57;;;12.33;;
5608;SDS011;2826;51.354;9.588;2022-12-17T09:01:45;61.83;;;11.90;;
5608;SDS011;2826;51.354;9.588;2022-12-17T09:04:31;55.60;;;9.60;;
5608;SDS011;2826;51.354;9.588;2022-12-17T09:07:16;54.03;;;13.70;;
5608;SDS011;2826;51.354;9.588;2022-12-17T09:10:01;42.10;;;13.27;;
5608;SDS011;2826;51.354;9.588;2022-12-17T09:12:45;36.80;;;10.83;;
5608;SDS011;2826;51.354;9.588;2022-12-17T09:15:31;41.77;;;10.60;;
5608;SDS011;2826;51.354;9.588;2022-12-17T09:18:17;32.20;;;12.70;;
5608;SDS011;2826;51.354;9.588;2022-12-17T09:21:04;35.73;;;10.73;;
5608;SDS011;2826;51.354;9.588;2022-12-17T09:23:49;84.37;;;12.30;;
5608;SDS011;2826;51.354;9.588;2022-12-17T09:26:34;45.50;;;14.30;;
5608;SDS011;2826;51.354;9.588;2022-12-17T09:29:18;54.83;;;13.53;;
5608;SDS011;2826;51.354;9.588;2022-12-17T09:32:03;62.28;;;11.75;;
5608;SDS011;2826;51.354;9.588;2022-12-17T09:34:47;140.20;;;15.13;;
5608;SDS011;2826;51.354;9.588;2022-12-17T09:37:33;54.50;;;15.27;;
5608;SDS011;2826;51.354;9.588;2022-12-17T09:40:19;52.60;;;13.63;;
5608;SDS011;2826;51.354;9.588;2022-12-17T09:43:12;35.07;;;12.70;;
5608;SDS011;2826;51.354;9.588;2022-12-17T09:46:07;49.17;;;12.77;;
5608;SDS011;2826;51.354;9.588;2022-12-17T09:49:00;55.23;;;11.70;;
5608;SDS011;2826;51.354;9.588;2022-12-17T09:51:47;73.10;;;12.03;;
5608;SDS011;2826;51.354;9.588;2022-12-17T09:54:35;100.63;;;13.40;;
5608;SDS011;2826;51.354;9.588;2022-12-17T09:57:23;90.80;;;12.90;;
5608;SDS011;2826;51.354;9.588;2022-12-17T10:00:14;51.43;;;8.47;;
5608;SDS011;2826;51.354;9.588;2022-12-17T10:03:00;47.17;;;12.10;;
5608;SDS011;2826;51.354;9.588;2022-12-17T10:05:45;70.97;;;12.30;;
5608;SDS011;2826;51.354;9.588;2022-12-17T10:08:30;78.47;;;15.40;;
5608;SDS011;2826;51.354;9.588;2022-12-17T10:11:19;43.30;;;11.13;;
5608;SDS011;2826;51.354;9.588;2022-12-17T10:14:10;83.47;;;13.20;;
5608;SDS011;2826;51.354;9.588;2022-12-17T10:16:59;96.63;;;12.70;;
5608;SDS011;2826;51.354;9.588;2022-12-17T10:19:45;48.13;;;13.50;;
5608;SDS011;2826;51.354;9.588;2022-12-17T10:22:40;42.53;;;13.07;;
5608;SDS011;2826;51.354;9.588;2022-12-17T10:25:25;77.67;;;11.90;;
5608;SDS011;2826;51.354;9.588;2022-12-17T10:28:12;65.23;;;12.70;;
5608;SDS011;2826;51.354;9.588;2022-12-17T10:30:57;70.63;;;13.30;;
5608;SDS011;2826;51.354;9.588;2022-12-17T10:33:43;35.53;;;11.60;;
5608;SDS011;2826;51.354;9.588;2022-12-17T10:36:28;42.90;;;11.30;;
5608;SDS011;2826;51.354;9.588;2022-12-17T10:39:14;70.77;;;12.70;;
5608;SDS011;2826;51.354;9.588;2022-12-17T10:42:00;70.37;;;13.77;;
5608;SDS011;2826;51.354;9.588;2022-12-17T10:44:46;78.83;;;13.10;;
5608;SDS011;2826;51.354;9.588;2022-12-17T10:47:32;34.40;;;11.20;;
5608;SDS011;2826;51.354;9.588;2022-12-17T10:50:17;47.77;;;13.90;;
5608;SDS011;2826;51.354;9.588;2022-12-17T10:53:02;51.00;;;14.13;;
5608;SDS011;2826;51.354;9.588;2022-12-17T10:55:50;36.63;;;13.90;;
5608;SDS011;2826;51.354;9.588;2022-12-17T10:58:43;41.73;;;12.43;;
5608;SDS011;2826;51.354;9.588;2022-12-17T11:01:32;47.80;;;12.37;;
5608;SDS011;2826;51.354;9.588;2022-12-17T11:04:20;54.03;;;12.40;;
5608;SDS011;2826;51.354;9.588;2022-12-17T11:07:07;41.63;;;12.23;;
5608;SDS011;2826;51.354;9.588;2022-12-17T11:09:54;36.60;;;12.90;;
5608;SDS011;2826;51.354;9.588;2022-12-17T11:12:41;41.83;;;11.57;;
5608;SDS011;2826;51.354;9.588;2022-12-17T11:15:30;56.57;;;15.67;;
5608;SDS011;2826;51.354;9.588;2022-12-17T11:18:21;35.10;;;12.80;;
5608;SDS011;2826;51.354;9.588;2022-12-17T11:21:09;40.93;;;13.20;;
5608;SDS011;2826;51.354;9.588;2022-12-17T11:23:56;59.70;;;13.07;;
5608;SDS011;2826;51.354;9.588;2022-12-17T11:26:43;53.27;;;13.80;;
5608;SDS011;2826;51.354;9.588;2022-12-17T11:29:31;89.63;;;14.97;;
5608;SDS011;2826;51.354;9.588;2022-12-17T11:32:24;99.17;;;14.77;;
5608;SDS011;2826;51.354;9.588;2022-12-17T11:35:29;41.57;;;14.13;;
5608;SDS011;2826;51.354;9.588;2022-12-17T11:38:22;52.27;;;15.97;;
5608;SDS011;2826;51.354;9.588;2022-12-17T11:41:14;72.57;;;15.97;;
5608;SDS011;2826;51.354;9.588;2022-12-17T11:44:06;81.37;;;13.37;;
5608;SDS011;2826;51.354;9.588;2022-12-17T11:47:01;140.30;;;14.13;;
5608;SDS011;2826;51.354;9.588;2022-12-17T11:49:56;86.27;;;14.20;;
5608;SDS011;2826;51.354;9.588;2022-12-17T11:52:53;177.60;;;16.37;;
5608;SDS011;2826;51.354;9.588;2022-12-17T11:55:45;137.53;;;17.03;;
5608;SDS011;2826;51.354;9.588;2022-12-17T11:58:38;74.90;;;16.20;;
5608;SDS011;2826;51.354;9.588;2022-12-17T12:01:26;82.90;;;17.80;;
5608;SDS011;2826;51.354;9.588;2022-12-17T12:04:23;71.87;;;18.00;;
5608;SDS011;2826;51.354;9.588;2022-12-17T12:07:20;102.47;;;16.73;;
5608;SDS011;2826;51.354;9.588;2022-12-17T12:10:16;83.73;;;18.20;;
5608;SDS011;2826;51.354;9.588;2022-12-17T12:13:08;40.93;;;15.30;;
5608;SDS011;2826;51.354;9.588;2022-12-17T12:16:14;49.10;;;16.30;;
5608;SDS011;2826;51.354;9.588;2022-12-17T12:19:10;43.97;;;16.67;;
5608;SDS011;2826;51.354;9.588;2022-12-17T12:22:03;39.80;;;15.80;;
5608;SDS011;2826;51.354;9.588;2022-12-17T12:25:06;45.93;;;16.67;;
5608;SDS011;2826;51.354;9.588;2022-12-17T12:28:06;70.30;;;18.67;;
5608;SDS011;2826;51.354;9.588;2022-12-17T12:31:02;140.57;;;20.70;;
5608;SDS011;2826;51.354;9.588;2022-12-17T12:33:59;51.60;;;18.07;;
5608;SDS011;2826;51.354;9.588;2022-12-17T12:36:47;95.17;;;18.83;;
5608;SDS011;2826;51.354;9.588;2022-12-17T12:39:35;42.47;;;16.27;;
5608;SDS011;2826;51.354;9.588;2022-12-17T12:42:25;73.90;;;16.17;;
5608;SDS011;2826;51.354;9.588;2022-12-17T12:45:21;49.00;;;15.60;;
5608;SDS011;2826;51.354;9.588;2022-12-17T12:48:16;48.07;;;17.10;;
5608;SDS011;2826;51.354;9.588;2022-12-17T12:51:11;51.87;;;17.30;;
5608;SDS011;2826;51.354;9.588;2022-12-17T12:54:18;49.40;;;17.33;;
5608;SDS011;2826;51.354;9.588;2022-12-17T13:00:21;49.30;;;15.53;;
5608;SDS011;2826;51.354;9.588;2022-12-17T13:03:12;38.03;;;14.30;;
5608;SDS011;2826;51.354;9.588;2022-12-17T13:06:03;59.10;;;16.90;;
5608;SDS011;2826;51.354;9.588;2022-12-17T13:08:29;46.30;;;14.37;;
5608;SDS011;2826;51.354;9.588;2022-12-17T13:10:56;37.07;;;16.07;;
5608;SDS011;2826;51.354;9.588;2022-12-17T13:13:38;41.40;;;15.77;;
5608;SDS011;2826;51.354;9.588;2022-12-17T13:16:25;42.93;;;16.33;;
5608;SDS011;2826;51.354;9.588;2022-12-17T13:19:02;46.27;;;17.40;;
5608;SDS011;2826;51.354;9.588;2022-12-17T13:21:42;49.77;;;19.13;;
5608;SDS011;2826;51.354;9.588;2022-12-17T13:24:10;96.60;;;21.40;;
5608;SDS011;2826;51.354;9.588;2022-12-17T13:26:41;60.10;;;18.93;;
5608;SDS011;2826;51.354;9.588;2022-12-17T13:29:10;81.23;;;23.60;;
5608;SDS011;2826;51.354;9.588;2022-12-17T13:31:50;56.63;;;16.20;;
5608;SDS011;2826;51.354;9.588;2022-12-17T13:34:24;55.20;;;18.57;;
5608;SDS011;2826;51.354;9.588;2022-12-17T13:36:58;46.10;;;16.90;;
5608;SDS011;2826;51.354;9.588;2022-12-17T13:39:34;45.93;;;16.97;;
5608;SDS011;2826;51.354;9.588;2022-12-17T13:42:13;74.47;;;15.73;;
5608;SDS011;2826;51.354;9.588;2022-12-17T13:44:43;85.97;;;23.57;;
5608;SDS011;2826;51.354;9.588;2022-12-17T13:47:19;164.27;;;21.30;;
5608;SDS011;2826;51.354;9.588;2022-12-17T13:49:50;78.47;;;18.10;;
5608;SDS011;2826;51.354;9.588;2022-12-17T13:52:19;146.70;;;18.20;;
5608;SDS011;2826;51.354;9.588;2022-12-17T13:54:47;89.60;;;18.00;;
5608;SDS011;2826;51.354;9.588;2022-12-17T13:57:15;57.23;;;16.13;;
5608;SDS011;2826;51.354;9.588;2022-12-17T13:59:47;134.50;;;21.10;;
5608;SDS011;2826;51.354;9.588;2022-12-17T14:02:24;85.97;;;21.20;;
5608;SDS011;2826;51.354;9.588;2022-12-17T14:04:53;68.57;;;20.37;;
5608;SDS011;2826;51.354;9.588;2022-12-17T14:07:21;147.73;;;22.43;;
5608;SDS011;2826;51.354;9.588;2022-12-17T14:09:50;130.33;;;21.40;;
5608;SDS011;2826;51.354;9.588;2022-12-17T14:12:18;63.80;;;21.17;;
5608;SDS011;2826;51.354;9.588;2022-12-17T14:14:47;67.27;;;21.00;;
5608;SDS011;2826;51.354;9.588;2022-12-17T14:17:17;59.73;;;21.27;;
5608;SDS011;2826;51.354;9.588;2022-12-17T14:19:46;55.27;;;21.90;;
5608;SDS011;2826;51.354;9.588;2022-12-17T14:22:17;53.27;;;20.83;;
5608;SDS011;2826;51.354;9.588;2022-12-17T14:24:53;51.37;;;21.77;;
5608;SDS011;2826;51.354;9.588;2022-12-17T14:27:22;56.33;;;18.57;;
5608;SDS011;2826;51.354;9.588;2022-12-17T14:29:51;60.20;;;21.50;;
5608;SDS011;2826;51.354;9.588;2022-12-17T14:32:22;112.03;;;20.90;;
5608;SDS011;2826;51.354;9.588;2022-12-17T14:34:52;96.60;;;19.30;;
5608;SDS011;2826;51.354;9.588;2022-12-17T14:37:20;46.70;;;17.50;;
5608;SDS011;2826;51.354;9.588;2022-12-17T14:39:50;43.50;;;18.43;;
5608;SDS011;2826;51.354;9.588;2022-12-17T14:42:21;47.63;;;18.80;;
5608;SDS011;2826;51.354;9.588;2022-12-17T14:44:51;49.23;;;19.40;;
5608;SDS011;2826;51.354;9.588;2022-12-17T14:47:21;46.80;;;19.60;;
5608;SDS011;2826;51.354;9.588;2022-12-17T14:50:24;44.87;;;17.10;;
5608;SDS011;2826;51.354;9.588;2022-12-17T14:52:57;53.80;;;19.75;;
5608;SDS011;2826;51.354;9.588;2022-12-17T14:55:27;60.57;;;22.60;;
5608;SDS011;2826;51.354;9.588;2022-12-17T15:00:44;73.90;;;27.77;;
5608;SDS011;2826;51.354;9.588;2022-12-17T15:03:16;182.77;;;34.90;;
5608;SDS011;2826;51.354;9.588;2022-12-17T15:05:49;99.93;;;31.37;;
5608;SDS011;2826;51.354;9.588;2022-12-17T15:08:18;112.73;;;25.87;;
5608;SDS011;2826;51.354;9.588;2022-12-17T15:10:47;103.23;;;23.60;;
5608;SDS011;2826;51.354;9.588;2022-12-17T15:13:14;95.23;;;22.03;;
5608;SDS011;2826;51.354;9.588;2022-12-17T15:15:41;96.93;;;25.93;;
5608;SDS011;2826;51.354;9.588;2022-12-17T15:18:08;87.20;;;25.63;;
5608;SDS011;2826;51.354;9.588;2022-12-17T15:20:35;76.20;;;26.00;;
5608;SDS011;2826;51.354;9.588;2022-12-17T15:23:03;64.80;;;22.27;;
5608;SDS011;2826;51.354;9.588;2022-12-17T15:25:30;67.93;;;23.50;;
5608;SDS011;2826;51.354;9.588;2022-12-17T15:27:57;62.50;;;22.83;;
5608;SDS011;2826;51.354;9.588;2022-12-17T15:30:24;52.17;;;22.00;;
5608;SDS011;2826;51.354;9.588;2022-12-17T15:32:51;49.90;;;22.43;;
5608;SDS011;2826;51.354;9.588;2022-12-17T15:35:18;48.23;;;19.90;;
5608;SDS011;2826;51.354;9.588;2022-12-17T15:37:45;48.07;;;17.73;;
5608;SDS011;2826;51.354;9.588;2022-12-17T15:40:13;46.00;;;19.17;;
5608;SDS011;2826;51.354;9.588;2022-12-17T15:42:40;66.73;;;19.83;;
5608;SDS011;2826;51.354;9.588;2022-12-17T15:45:24;55.50;;;21.37;;
5608;SDS011;2826;51.354;9.588;2022-12-17T15:47:51;55.87;;;21.43;;
5608;SDS011;2826;51.354;9.588;2022-12-17T15:50:19;74.80;;;27.40;;
5608;SDS011;2826;51.354;9.588;2022-12-17T15:52:45;74.70;;;27.50;;
5608;SDS011;2826;51.354;9.588;2022-12-17T15:55:14;61.53;;;24.60;;
5608;SDS011;2826;51.354;9.588;2022-12-17T15:57:41;92.37;;;25.27;;
5608;SDS011;2826;51.354;9.588;2022-12-17T16:00:09;80.80;;;24.20;;
5608;SDS011;2826;51.354;9.588;2022-12-17T16:02:36;68.97;;;22.47;;
5608;SDS011;2826;51.354;9.588;2022-12-17T16:05:04;68.43;;;20.67;;
5608;SDS011;2826;51.354;9.588;2022-12-17T16:07:31;215.10;;;25.90;;
5608;SDS011;2826;51.354;9.588;2022-12-17T16:09:58;106.40;;;20.03;;
5608;SDS011;2826;51.354;9.588;2022-12-17T16:12:27;291.63;;;25.00;;
5608;SDS011;2826;51.354;9.588;2022-12-17T16:14:54;176.50;;;22.33;;
5608;SDS011;2826;51.354;9.588;2022-12-17T16:17:20;140.40;;;23.07;;
5608;SDS011;2826;51.354;9.588;2022-12-17T16:19:47;231.07;;;22.60;;
5608;SDS011;2826;51.354;9.588;2022-12-17T16:22:14;265.17;;;21.20;;
5608;SDS011;2826;51.354;9.588;2022-12-17T16:24:41;164.93;;;17.97;;
5608;SDS011;2826;51.354;9.588;2022-12-17T16:27:08;248.30;;;19.90;;
5608;SDS011;2826;51.354;9.588;2022-12-17T16:29:37;152.60;;;18.50;;